createdAt,value
2023-03-24T00:02:01.118Z,9.83
2023-03-24T00:04:36.744Z,9.80
2023-03-24T00:07:15.143Z,9.78
2023-03-24T00:09:53.901Z,9.74
2023-03-24T00:12:32.728Z,9.70
2023-03-24T00:15:09.532Z,9.67
2023-03-24T00:17:46.798Z,9.64
2023-03-24T00:20:29.943Z,9.59
2023-03-24T00:23:09.440Z,9.55
2023-03-24T00:25:51.280Z,9.51
2023-03-24T00:28:30.047Z,9.48
2023-03-24T00:31:13.696Z,9.44
2023-03-24T00:33:52.000Z,9.40
2023-03-24T00:36:30.620Z,9.37
2023-03-24T00:39:20.580Z,9.34
2023-03-24T00:42:02.030Z,9.29
2023-03-24T00:44:48.076Z,9.27
2023-03-24T00:47:26.319Z,9.25
2023-03-24T00:50:04.742Z,9.21
2023-03-24T00:52:44.880Z,9.19
2023-03-24T00:55:32.947Z,9.15
2023-03-24T00:58:20.733Z,9.11
2023-03-24T01:01:01.899Z,9.09
2023-03-24T01:03:51.631Z,9.08
2023-03-24T01:06:30.104Z,9.06
2023-03-24T01:09:07.030Z,9.03
2023-03-24T01:11:52.732Z,9.00
2023-03-24T01:14:30.789Z,8.98
2023-03-24T01:17:11.271Z,8.97
2023-03-24T01:19:51.428Z,8.93
2023-03-24T01:22:32.023Z,8.90
2023-03-24T01:25:19.331Z,8.87
2023-03-24T01:28:02.114Z,8.84
2023-03-24T01:30:40.291Z,8.80
2023-03-24T01:33:15.513Z,8.78
2023-03-24T01:35:56.687Z,8.76
2023-03-24T01:38:55.069Z,8.74
2023-03-24T01:41:46.580Z,8.69
2023-03-24T01:44:42.816Z,8.67
2023-03-24T01:47:24.467Z,8.65
2023-03-24T01:50:11.947Z,8.65
2023-03-24T01:52:50.366Z,8.63
2023-03-24T01:55:33.505Z,8.60
2023-03-24T01:58:13.587Z,8.60
2023-03-24T02:01:08.104Z,8.57
2023-03-24T02:04:11.848Z,8.50
2023-03-24T02:06:57.584Z,8.50
2023-03-24T02:09:34.354Z,8.50
2023-03-24T02:12:16.170Z,8.49
2023-03-24T02:15:13.566Z,8.48
2023-03-24T02:18:11.481Z,8.45
2023-03-24T02:21:24.076Z,8.43
2023-03-24T02:24:45.357Z,8.39
2023-03-24T02:27:46.739Z,8.34
2023-03-24T02:31:17.961Z,8.28
2023-03-24T02:34:30.236Z,8.21
2023-03-24T02:37:36.732Z,8.16
2023-03-24T02:40:30.640Z,8.15
2023-03-24T02:43:43.341Z,8.15
2023-03-24T02:46:28.627Z,8.13
2023-03-24T02:49:13.601Z,8.13
2023-03-24T02:52:04.917Z,8.13
2023-03-24T02:54:50.457Z,8.13
2023-03-24T02:57:34.014Z,8.13
2023-03-24T03:00:37.677Z,8.13
2023-03-24T03:03:47.613Z,8.12
2023-03-24T03:06:27.911Z,8.12
2023-03-24T03:09:09.115Z,8.14
2023-03-24T03:11:52.618Z,8.16
2023-03-24T03:14:32.964Z,8.20
2023-03-24T03:17:29.923Z,8.21
2023-03-24T03:20:13.452Z,8.23
2023-03-24T03:22:53.065Z,8.23
2023-03-24T03:25:48.936Z,8.25
2023-03-24T03:28:38.790Z,8.24
2023-03-24T03:31:30.458Z,8.25
2023-03-24T03:34:17.631Z,8.25
2023-03-24T03:36:59.380Z,8.27
2023-03-24T03:39:39.739Z,8.28
2023-03-24T03:42:22.948Z,8.29
2023-03-24T03:45:15.142Z,8.31
2023-03-24T03:47:57.786Z,8.33
2023-03-24T03:50:38.228Z,8.33
2023-03-24T03:53:24.140Z,8.36
2023-03-24T03:56:06.937Z,8.39
2023-03-24T03:58:48.706Z,8.40
2023-03-24T04:01:36.658Z,8.42
2023-03-24T04:05:03.261Z,8.40
2023-03-24T04:08:32.639Z,8.34
2023-03-24T04:11:49.362Z,8.32
2023-03-24T04:15:24.490Z,8.30
2023-03-24T04:18:54.926Z,8.27
2023-03-24T04:21:55.029Z,8.29
2023-03-24T04:24:51.928Z,8.31
2023-03-24T04:27:44.974Z,8.34
2023-03-24T04:30:35.773Z,8.37
2023-03-24T04:33:39.337Z,8.37
2023-03-24T04:36:35.709Z,8.40
2023-03-24T04:39:44.010Z,8.39
2023-03-24T04:42:30.324Z,8.43
2023-03-24T04:45:20.710Z,8.46
2023-03-24T04:48:12.996Z,8.47
2023-03-24T04:51:28.114Z,8.47
2023-03-24T04:54:26.886Z,8.45
2023-03-24T04:57:10.152Z,8.46
2023-03-24T05:00:20.454Z,8.46
2023-03-24T05:02:58.956Z,8.46
2023-03-24T05:05:36.897Z,8.47
2023-03-24T05:08:19.355Z,8.47
2023-03-24T05:11:05.856Z,8.49
2023-03-24T05:13:47.453Z,8.52
2023-03-24T05:16:27.231Z,8.56
2023-03-24T05:19:10.266Z,8.59
2023-03-24T05:21:47.090Z,8.62
2023-03-24T05:24:27.715Z,8.65
2023-03-24T05:27:19.730Z,8.67
2023-03-24T05:29:58.130Z,8.70
2023-03-24T05:32:36.616Z,8.73
2023-03-24T05:35:14.722Z,8.77
2023-03-24T05:37:54.510Z,8.82
2023-03-24T05:40:33.701Z,8.87
2023-03-24T05:43:35.707Z,8.90
2023-03-24T05:46:42.824Z,8.91
2023-03-24T05:49:20.356Z,8.95
2023-03-24T05:52:01.239Z,9.00
2023-03-24T05:54:57.887Z,9.04
2023-03-24T05:57:42.715Z,9.09
2023-03-24T06:00:29.159Z,9.15
2023-03-24T06:03:18.979Z,9.21
2023-03-24T06:06:20.214Z,9.28
2023-03-24T06:09:00.023Z,9.34
2023-03-24T06:11:41.994Z,9.40
2023-03-24T06:14:30.590Z,9.47
2023-03-24T06:17:17.216Z,9.53
2023-03-24T06:20:04.068Z,9.62
2023-03-24T06:23:03.693Z,9.69
2023-03-24T06:25:45.768Z,9.77
2023-03-24T06:28:30.792Z,9.84
2023-03-24T06:31:15.714Z,9.92
2023-03-24T06:33:55.288Z,9.99
2023-03-24T06:36:37.848Z,10.08
2023-03-24T06:39:15.715Z,10.18
2023-03-24T06:41:54.075Z,10.26
2023-03-24T06:44:29.296Z,10.34
2023-03-24T06:47:08.315Z,10.41
2023-03-24T06:49:52.697Z,10.48
2023-03-24T06:52:29.830Z,10.56
2023-03-24T06:55:14.023Z,10.63
2023-03-24T06:57:51.918Z,10.71
2023-03-24T07:00:48.067Z,10.79
2023-03-24T07:03:45.855Z,10.86
2023-03-24T07:07:01.346Z,10.96
2023-03-24T07:09:42.258Z,11.06
2023-03-24T07:12:17.230Z,11.16
2023-03-24T07:14:56.376Z,11.30
2023-03-24T07:17:33.096Z,11.40
2023-03-24T07:20:33.392Z,11.50
2023-03-24T07:23:19.124Z,11.58
2023-03-24T07:26:03.222Z,11.64
2023-03-24T07:29:08.188Z,11.72
2023-03-24T07:32:03.627Z,11.77
2023-03-24T07:34:40.936Z,11.83
2023-03-24T07:37:19.620Z,11.92
2023-03-24T07:39:59.088Z,11.98
2023-03-24T07:42:40.058Z,12.07
2023-03-24T07:45:35.750Z,12.13
2023-03-24T07:48:16.551Z,12.16
2023-03-24T07:50:55.120Z,12.17
2023-03-24T07:53:56.889Z,12.19
2023-03-24T07:56:47.260Z,12.17
2023-03-24T07:59:25.998Z,12.19
2023-03-24T08:02:24.140Z,12.18
2023-03-24T08:05:31.146Z,12.20
2023-03-24T08:08:49.038Z,12.17
2023-03-24T08:11:23.886Z,12.16
2023-03-24T08:14:01.834Z,12.18
2023-03-24T08:16:36.442Z,12.20
2023-03-24T08:19:13.772Z,12.23
2023-03-24T08:21:52.936Z,12.26
2023-03-24T08:24:32.139Z,12.27
2023-03-24T08:27:13.686Z,12.24
2023-03-24T08:29:49.340Z,12.29
2023-03-24T08:32:27.174Z,12.36
2023-03-24T08:35:13.190Z,12.40
2023-03-24T08:38:07.085Z,12.42
2023-03-24T08:40:44.619Z,12.43
2023-03-24T08:43:25.935Z,12.45
2023-03-24T08:46:05.484Z,12.53
2023-03-24T08:48:48.360Z,12.62
2023-03-24T08:51:28.569Z,12.72
2023-03-24T08:54:14.345Z,12.79
2023-03-24T08:56:51.140Z,12.88
2023-03-24T08:59:28.006Z,13.00
2023-03-24T09:02:02.605Z,13.10
2023-03-24T09:04:45.467Z,13.18
2023-03-24T09:07:24.236Z,13.27
2023-03-24T09:09:59.996Z,13.38
2023-03-24T09:12:44.155Z,13.48
2023-03-24T09:15:24.889Z,13.52
2023-03-24T09:18:00.996Z,13.61
2023-03-24T09:20:39.176Z,13.75
2023-03-24T09:23:18.056Z,13.81
2023-03-24T09:25:56.284Z,13.87
2023-03-24T09:28:37.253Z,14.02
2023-03-24T09:31:16.652Z,14.06
2023-03-24T09:33:51.280Z,14.06
2023-03-24T09:36:30.694Z,14.06
2023-03-24T09:39:08.899Z,14.11
2023-03-24T09:41:48.645Z,14.13
2023-03-24T09:44:36.026Z,14.13
2023-03-24T09:47:25.074Z,14.17
2023-03-24T09:50:04.680Z,14.25
2023-03-24T09:52:50.341Z,14.34
2023-03-24T09:55:30.138Z,14.44
2023-03-24T09:58:10.129Z,14.60
2023-03-24T10:00:50.971Z,14.79
2023-03-24T10:03:39.508Z,14.94
2023-03-24T10:06:22.445Z,15.06
2023-03-24T10:09:12.124Z,15.17
2023-03-24T10:11:59.011Z,15.24
2023-03-24T10:14:51.764Z,15.31
2023-03-24T10:17:40.215Z,15.33
2023-03-24T10:20:38.203Z,15.34
2023-03-24T10:23:27.095Z,15.36
2023-03-24T10:26:11.394Z,15.38
2023-03-24T10:28:52.767Z,15.44
2023-03-24T10:31:37.021Z,15.47
2023-03-24T10:34:17.782Z,15.51
2023-03-24T10:36:54.857Z,15.58
2023-03-24T10:39:44.345Z,15.63
2023-03-24T10:42:29.271Z,15.66
2023-03-24T10:45:13.846Z,15.67
2023-03-24T10:47:51.154Z,15.70
2023-03-24T10:50:30.201Z,15.78
2023-03-24T10:53:10.924Z,15.85
2023-03-24T10:55:56.216Z,15.97
2023-03-24T10:58:42.200Z,16.08
2023-03-24T11:01:28.030Z,16.15
2023-03-24T11:04:08.953Z,16.23
2023-03-24T11:07:02.692Z,16.37
2023-03-24T11:09:55.075Z,16.46
2023-03-24T11:12:36.271Z,16.56
2023-03-24T11:15:55.394Z,16.66
2023-03-24T11:18:39.898Z,16.72
2023-03-24T11:21:19.287Z,16.80
2023-03-24T11:23:55.071Z,16.88
2023-03-24T11:26:35.718Z,16.97
2023-03-24T11:29:18.894Z,17.08
2023-03-24T11:31:59.733Z,17.18
2023-03-24T11:34:43.321Z,17.24
2023-03-24T11:37:22.389Z,17.29
2023-03-24T11:40:23.222Z,17.28
2023-03-24T11:43:06.080Z,17.25
2023-03-24T11:45:46.773Z,17.28
2023-03-24T11:48:32.318Z,17.32
2023-03-24T11:51:13.337Z,17.32
2023-03-24T11:53:55.001Z,17.34
2023-03-24T11:56:43.176Z,17.35
2023-03-24T11:59:32.291Z,17.39
2023-03-24T12:02:20.306Z,17.43
2023-03-24T12:05:33.459Z,17.46
2023-03-24T12:08:30.883Z,17.55
2023-03-24T12:11:18.741Z,17.66
2023-03-24T12:14:00.940Z,17.66
2023-03-24T12:16:52.350Z,17.63
2023-03-24T12:20:05.642Z,17.57
2023-03-24T12:22:59.767Z,17.40
2023-03-24T12:25:59.881Z,17.33
2023-03-24T12:29:02.662Z,17.21
2023-03-24T12:32:17.961Z,17.12
2023-03-24T12:35:16.774Z,17.04
2023-03-24T12:38:05.012Z,17.03
2023-03-24T12:41:05.546Z,16.97
2023-03-24T12:43:55.281Z,16.85
2023-03-24T12:46:53.940Z,16.78
2023-03-24T12:53:07.818Z,16.64
2023-03-24T12:55:51.815Z,16.37
2023-03-24T12:58:39.635Z,16.28
2023-03-24T13:01:43.241Z,16.22
2023-03-24T13:04:28.920Z,16.15
2023-03-24T13:07:08.591Z,16.11
2023-03-24T13:09:54.180Z,16.04
2023-03-24T13:12:40.587Z,15.97
2023-03-24T13:15:27.186Z,15.90
2023-03-24T13:18:09.801Z,15.87
2023-03-24T13:20:53.899Z,15.81
2023-03-24T13:23:41.789Z,15.73
2023-03-24T13:27:02.608Z,15.69
2023-03-24T13:30:08.905Z,15.66
2023-03-24T13:32:59.594Z,15.65
2023-03-24T13:35:52.887Z,15.71
2023-03-24T13:38:38.371Z,15.79
2023-03-24T13:41:24.744Z,15.85
2023-03-24T13:44:19.106Z,15.88
2023-03-24T13:47:50.281Z,15.90
2023-03-24T13:50:30.188Z,15.98
2023-03-24T13:53:19.246Z,16.07
2023-03-24T13:55:56.305Z,16.18
2023-03-24T13:58:46.764Z,16.29
2023-03-24T14:01:37.030Z,16.40
2023-03-24T14:04:28.654Z,16.47
2023-03-24T14:07:25.336Z,16.55
2023-03-24T14:10:05.379Z,16.59
2023-03-24T14:12:57.334Z,16.65
2023-03-24T14:15:34.886Z,16.68
2023-03-24T14:18:42.008Z,16.67
2023-03-24T14:21:17.362Z,16.62
2023-03-24T14:23:59.700Z,16.58
2023-03-24T14:26:39.167Z,16.58
2023-03-24T14:29:51.783Z,16.58
2023-03-24T14:32:26.291Z,16.57
2023-03-24T14:35:07.048Z,16.59
2023-03-24T14:37:54.764Z,16.59
2023-03-24T14:40:41.013Z,16.59
2023-03-24T14:43:29.260Z,16.56
2023-03-24T14:46:09.221Z,16.55
2023-03-24T14:48:59.920Z,16.54
2023-03-24T14:51:44.181Z,16.52
2023-03-24T14:54:28.410Z,16.48
2023-03-24T14:57:06.978Z,16.45
2023-03-24T14:59:53.181Z,16.43
2023-03-24T15:02:56.593Z,16.44
2023-03-24T15:05:37.256Z,16.42
2023-03-24T15:08:22.011Z,16.42
2023-03-24T15:11:05.367Z,16.40
2023-03-24T15:13:45.556Z,16.39
2023-03-24T15:16:30.778Z,16.42
2023-03-24T15:19:13.940Z,16.43
2023-03-24T15:21:59.766Z,16.41
2023-03-24T15:24:40.272Z,16.38
2023-03-24T15:27:24.402Z,16.35
2023-03-24T15:30:04.055Z,16.30
2023-03-24T15:32:46.679Z,16.26
2023-03-24T15:35:25.632Z,16.23
2023-03-24T15:38:02.425Z,16.19
2023-03-24T15:40:46.108Z,16.19
2023-03-24T15:43:27.285Z,16.17
2023-03-24T15:46:12.387Z,16.14
2023-03-24T15:48:58.531Z,16.07
2023-03-24T15:51:51.760Z,16.00
2023-03-24T15:54:33.275Z,15.93
2023-03-24T15:57:22.259Z,15.89
2023-03-24T16:00:16.703Z,15.89
2023-03-24T16:02:55.176Z,15.90
2023-03-24T16:05:32.980Z,15.91
2023-03-24T16:08:28.736Z,15.88
2023-03-24T16:11:08.692Z,15.84
2023-03-24T16:13:49.623Z,15.82
2023-03-24T16:16:34.652Z,15.79
2023-03-24T16:19:10.402Z,15.78
2023-03-24T16:21:49.217Z,15.73
2023-03-24T16:24:25.699Z,15.74
2023-03-24T16:27:01.914Z,15.76
2023-03-24T16:29:37.685Z,15.75
2023-03-24T16:32:17.113Z,15.73
2023-03-24T16:34:51.249Z,15.72
2023-03-24T16:37:35.496Z,15.71
2023-03-24T16:40:33.755Z,15.69
2023-03-24T16:43:14.242Z,15.61
2023-03-24T16:45:54.504Z,15.55
2023-03-24T16:48:31.060Z,15.48
2023-03-24T16:51:13.285Z,15.36
2023-03-24T16:53:51.177Z,15.30
2023-03-24T16:56:32.229Z,15.26
2023-03-24T16:59:13.090Z,15.23
2023-03-24T17:01:49.861Z,15.17
2023-03-24T17:04:28.686Z,15.13
2023-03-24T17:07:16.725Z,15.08
2023-03-24T17:09:55.457Z,15.02
2023-03-24T17:12:32.181Z,14.99
2023-03-24T17:15:07.475Z,14.96
2023-03-24T17:17:46.035Z,14.95
2023-03-24T17:20:32.737Z,14.94
2023-03-24T17:23:09.180Z,14.91
2023-03-24T17:25:50.924Z,14.86
2023-03-24T17:28:28.177Z,14.82
2023-03-24T17:31:05.062Z,14.80
2023-03-24T17:33:44.758Z,14.78
2023-03-24T17:36:20.684Z,14.70
2023-03-24T17:38:55.996Z,14.63
2023-03-24T17:41:34.168Z,14.60
2023-03-24T17:44:13.674Z,14.56
2023-03-24T17:46:50.186Z,14.50
2023-03-24T17:49:31.206Z,14.44
2023-03-24T17:52:07.355Z,14.38
2023-03-24T17:54:43.537Z,14.32
2023-03-24T17:57:22.064Z,14.28
2023-03-24T18:00:10.385Z,14.23
2023-03-24T18:02:49.706Z,14.17
2023-03-24T18:05:28.456Z,14.13
2023-03-24T18:08:08.637Z,14.06
2023-03-24T18:10:49.553Z,13.99
2023-03-24T18:13:26.604Z,13.94
2023-03-24T18:16:20.830Z,13.90
2023-03-24T18:19:01.073Z,13.86
2023-03-24T18:21:41.363Z,13.83
2023-03-24T18:24:18.369Z,13.79
2023-03-24T18:27:00.384Z,13.79
2023-03-24T18:29:42.989Z,13.80
2023-03-24T18:32:23.572Z,13.82
2023-03-24T18:35:04.203Z,13.83
2023-03-24T18:37:43.840Z,13.84
2023-03-24T18:40:20.526Z,13.80
2023-03-24T18:42:58.345Z,13.79
2023-03-24T18:45:36.687Z,13.75
2023-03-24T18:48:15.004Z,13.66
2023-03-24T18:51:00.751Z,13.58
2023-03-24T18:53:46.011Z,13.50
2023-03-24T18:56:24.160Z,13.45
2023-03-24T18:59:04.087Z,13.39
2023-03-24T19:01:42.663Z,13.40
2023-03-24T19:04:18.830Z,13.35
2023-03-24T19:06:55.222Z,13.29
2023-03-24T19:09:48.519Z,13.27
2023-03-24T19:12:25.991Z,13.19
2023-03-24T19:15:07.352Z,13.17
2023-03-24T19:17:48.477Z,13.17
2023-03-24T19:20:24.612Z,13.18
2023-03-24T19:23:08.716Z,13.20
2023-03-24T19:25:47.101Z,13.21
2023-03-24T19:28:24.094Z,13.21
2023-03-24T19:31:09.770Z,13.21
2023-03-24T19:33:44.847Z,13.15
2023-03-24T19:36:23.329Z,13.11
2023-03-24T19:39:03.918Z,13.09
2023-03-24T19:41:43.402Z,13.10
2023-03-24T19:44:23.780Z,13.10
2023-03-24T19:47:04.635Z,13.09
2023-03-24T19:49:43.617Z,13.06
2023-03-24T19:52:29.601Z,12.96
2023-03-24T19:55:10.337Z,12.92
2023-03-24T19:57:46.955Z,12.89
2023-03-24T20:00:25.246Z,12.87
2023-03-24T20:03:09.091Z,12.85
2023-03-24T20:05:43.830Z,12.80
2023-03-24T20:08:28.848Z,12.76
2023-03-24T20:11:07.235Z,12.71
2023-03-24T20:13:47.364Z,12.66
2023-03-24T20:16:23.348Z,12.57
2023-03-24T20:19:02.318Z,12.53
2023-03-24T20:21:39.487Z,12.50
2023-03-24T20:24:19.774Z,12.46
2023-03-24T20:26:55.095Z,12.45
2023-03-24T20:29:33.210Z,12.44
2023-03-24T20:32:12.337Z,12.43
2023-03-24T20:34:48.285Z,12.40
2023-03-24T20:37:26.275Z,12.37
2023-03-24T20:40:02.918Z,12.30
2023-03-24T20:42:38.448Z,12.24
2023-03-24T20:45:17.705Z,12.21
2023-03-24T20:47:53.468Z,12.17
2023-03-24T20:50:31.319Z,12.14
2023-03-24T20:53:06.566Z,12.11
2023-03-24T20:55:41.524Z,12.07
2023-03-24T20:58:19.413Z,12.02
2023-03-24T21:00:56.077Z,11.92
2023-03-24T21:03:32.724Z,11.84
2023-03-24T21:06:12.615Z,11.78
2023-03-24T21:08:48.667Z,11.67
2023-03-24T21:11:25.522Z,11.60
2023-03-24T21:14:06.452Z,11.56
2023-03-24T21:16:44.690Z,11.50
2023-03-24T21:19:21.480Z,11.43
2023-03-24T21:21:56.554Z,11.38
2023-03-24T21:24:37.675Z,11.35
2023-03-24T21:27:14.401Z,11.33
2023-03-24T21:29:50.240Z,11.26
2023-03-24T21:32:31.629Z,11.21
2023-03-24T21:35:15.118Z,11.18
2023-03-24T21:37:54.598Z,11.12
2023-03-24T21:40:30.873Z,11.09
2023-03-24T21:43:07.384Z,11.03
2023-03-24T21:45:47.268Z,10.99
2023-03-24T21:48:23.793Z,10.96
2023-03-24T21:51:01.024Z,10.93
2023-03-24T21:53:41.368Z,10.88
2023-03-24T21:56:20.337Z,10.86
2023-03-24T21:58:57.635Z,10.83
2023-03-24T22:01:37.252Z,10.81
2023-03-24T22:04:13.390Z,10.76
2023-03-24T22:06:54.126Z,10.72
2023-03-24T22:09:35.126Z,10.68
2023-03-24T22:12:11.505Z,10.62
2023-03-24T22:14:49.405Z,10.57
2023-03-24T22:17:25.437Z,10.52
2023-03-24T22:20:00.964Z,10.51
2023-03-24T22:22:39.178Z,10.48
2023-03-24T22:25:25.563Z,10.43
2023-03-24T22:28:03.325Z,10.41
2023-03-24T22:30:44.408Z,10.38
2023-03-24T22:33:21.397Z,10.38
2023-03-24T22:36:00.490Z,10.37
2023-03-24T22:38:38.672Z,10.33
2023-03-24T22:41:16.503Z,10.28
2023-03-24T22:43:52.013Z,10.23
2023-03-24T22:46:32.968Z,10.21
2023-03-24T22:49:08.420Z,10.16
2023-03-24T22:51:44.622Z,10.16
2023-03-24T22:54:21.592Z,10.13
2023-03-24T22:56:57.395Z,10.05
2023-03-24T22:59:33.462Z,10.03
2023-03-24T23:02:10.696Z,10.03
2023-03-24T23:04:47.274Z,9.98
2023-03-24T23:07:24.072Z,9.93
2023-03-24T23:10:00.877Z,9.92
2023-03-24T23:12:38.275Z,9.88
2023-03-24T23:15:27.047Z,9.83
2023-03-24T23:18:04.479Z,9.78
2023-03-24T23:20:42.983Z,9.73
2023-03-24T23:23:22.623Z,9.68
2023-03-24T23:26:00.633Z,9.66
2023-03-24T23:28:39.756Z,9.62
2023-03-24T23:31:23.740Z,9.58
2023-03-24T23:34:00.767Z,9.57
2023-03-24T23:36:44.864Z,9.52
2023-03-24T23:39:24.733Z,9.47
2023-03-24T23:42:02.456Z,9.44
2023-03-24T23:44:41.136Z,9.44
2023-03-24T23:47:17.633Z,9.42
2023-03-24T23:49:56.073Z,9.40
2023-03-24T23:52:42.168Z,9.40
2023-03-24T23:55:25.975Z,9.39
2023-03-24T23:58:06.414Z,9.39
